cliquez pour ajouter le site Runraid à vos favoris  English version (google)  Retour à l'accueil Ecrire à l'auteur du site Runraid : Michel Jourdan



Les prochaines courses


Les derniers résultats

cliquez pour visualiser la page complète relatant la chronologie des éruptions du Piton de la Fournaise
éruptions Piton de la Fournaise


Ile de La Réunion

 Diagonale des Fous 

Nouveautés du site

Ecrire au créateur du site : Michel Jourdan
Contact


2014-02-23 - Cross de la Savane

Pour consulter le palmarès d'un coureur, un clic sur son nom !

Vous avez des remarques, corrections, ... sur ces résultats , un clic sur --> pour me transmettre toute information concernant les classements


Cross de la Savane - 2014 : classement des 384 finishers
Place Nom Temps Cat. Club Sexe Clt/cat.
Place Nom Temps Cat. Club Sexe Clt/cat.
1 BOYER Jeannick 00:59:21 SEM AVALASSE M 1 SEM 171
2 NARAYANIN EDDY 00:59:24 SEM CA DE LA P M 2 SEM 375
3 PAILLARD SIMON 00:59:27 SEM - M 3 SEM 383
4 LAW HAM TIEN YANNIS 00:59:30 V1M - M 1 V1M 324
5 PAYET JEAN PATRICE 00:59:39 V1M - M 2 V1M 513
6 BARLIEU RONAN 01:00:36 ESM CA DE LA P M 1 ESM 157
7 VATEL ARTHUR 01:01:18 SEM RUN'A M 4 SEM 450
8 MYRTHE PIERROT 01:02:10 V1M - M 3 V1M 374
9 HOAREAU JEAN LAURENT 01:02:37 SEM ESCDLM M 5 SEM 284
10 MARC LIONEL 01:03:26 SEM - M 6 SEM 352
11 SMITH ALEXANDRE 01:03:27 SEM - M 7 SEM 424
12 GASTRIN PIERRE ROBERT 01:03:36 V1M DA M 4 V1M 71
13 DIJOUX DAVID 01:03:45 SEM - M 8 SEM 209
14 BARENCOURT FABRICE 01:03:48 SEM CAPOSS M 9 SEM 156
15 IMBROSCIANO YANNICK 01:04:20 SEM DENIV M 10 SEM 98
16 CROCHET LAURENT 01:04:54 V1M - M 5 V1M 195
17 BOYER FRED JEAN BERNA 01:05:00 SEM AVALASSE M 11 SEM 168
18 LAURET MICKAEL 01:06:15 SEM - M 12 SEM 319
19 DALY ERRAYA Frederic 01:06:46 SEM - M 13 SEM 199
20 STEPHAN GUILLAUME 01:06:58 SEM CAPOSS M 14 SEM 520
21 TALIMBOLA Jean Benoit 01:07:09 V1M - M 6 V1M 525
22 HOAREAU JEAN JACQUES 01:07:32 SEM - M 15 SEM 283
23 HOAREAU GEORGES MARIE 01:07:38 V2M AVAD M 1 V2M 281
24 STROPPOLO walter 01:07:48 V1M - M 7 V1M 9
25 ARIAPOUTRY CAMILLE 01:07:53 V1M - M 8 V1M 505
26 BOYER JEAN MOISE 01:09:27 SEM - M 16 SEM 170
27 MOUNIAMA STEPHAN 01:09:29 V1M DENIV M 9 V1M 56
28 LEE SONG YIN GINO 01:09:41 V1M DENIV M 10 V1M 341
29 PICARD erick 01:09:52 V1M - M 11 V1M 4
30 SOUEIDAN KHALED 01:09:53 SEM CSSDA M 17 SEM 48
31 NOEL ERIC 01:10:12 SEM - M 18 SEM 379
32 BOURRINET ROMAIN 01:10:21 SEM - M 19 SEM 72
33 MICHEL PATRICE 01:10:34 V1M CAPOSS M 12 V1M 369
34 SANTOULANGUE Miguel 01:10:51 SEM - M 20 SEM 90
35 BOULESTIN CHRISTOPHE 01:10:55 V1M DENIV M 13 V1M 28
36 GALTIER JEAN ERIC 01:11:17 V1M - M 14 V1M 255
37 ROBERT EMMANUEL 01:11:24 SEM - M 21 SEM 411
38 VEFOUR STEPHANE 01:11:27 SEM - M 22 SEM 451
39 CALPETARD THERESIEN 01:11:27 V2M - M 2 V2M 175
40 CHANE SEE CHU OLIVIER 01:11:32 SEM DENIV M 23 SEM 35
41 DALAPA AMANA KARL JEAN RENE 01:11:38 V1M CAPP M 15 V1M 32
42 FELD SYLVAIN 01:11:50 V1M - M 16 V1M 239
43 PAYET JEAN PAUL 01:11:52 V1M - M 17 V1M 386
44 RIVIERE LEONEL 01:11:53 V1M - M 18 V1M 408
45 AUBRAS JEAN DAMIEN 01:11:56 ESM CA DE LA P M 2 ESM 151
46 MADILHAC ARNAUD 01:12:09 SEM - M 24 SEM 357
47 CADARSI FLORENT 01:12:16 SEM ESCDLM M 25 SEM 16
48 JULIE DOMINIQUE 01:12:33 V1M CA DE LA P M 19 V1M 53
49 FIANU ADRIAN 01:12:34 SEM - M 26 SEM 242
50 NOURRY HENRI 01:12:39 V2M CA DE LA P M 3 V2M 382
51 LAHIRE MICHEL 01:12:42 - M 309
52 POULLAIN eric 01:13:05 V1M - M 20 V1M 18
53 LACROIX FREDERIC 01:13:21 V2M - M 4 V2M 299
54 VITRY JOSEPH DANY 01:13:24 V1M ATHLETIQUE M 21 V1M 459
55 SERY NICOLAS 01:13:35 SEM - M 27 SEM 420
56 DEVEAUX FREDERIC 01:14:07 V1M RDB M 22 V1M 203
57 ALLAMELOU TEDDY 01:14:26 V1M A.C.B M 23 V1M 33
58 CHAMPEAU PASCAL 01:15:10 V1M - M 24 V1M 181
59 MARECHAL SERGIO 01:15:10 SEM - M 28 SEM 360
60 BRANCARD Ignace Joseph 01:15:14 V2M - M 5 V2M 50
61 DIJOUX LOIC 01:15:19 ESM - M 3 ESM 212
62 MONTET TEIVA 01:15:30 V1M DSA M 25 V1M 47
63 LORRAINE SULLY 01:15:40 V1M ACSP M 26 V1M 515
64 ELISABETH GEORGET 01:15:53 V2M - M 6 V2M 231
65 VINGUEDASSALOM TRISTAN 01:15:54 CAM - M 1 CAM 454
66 DRISS VINCENT 01:16:12 V1M - M 27 V1M 217
67 BERTELET Nicolas 01:16:28 SEM - M 29 SEM 162
68 VENDOMELE JIMMY 01:16:28 SEM - M 30 SEM 452
69 DAVIAUD FABIEN 01:16:29 SEM CA DE LA P M 31 SEM 10
70 MAILLOT RUDY 01:16:39 SEM - M 32 SEM 359
71 RENNEVILLE roberto 01:16:45 V2M - M 7 V2M 6
72 PICARD JULIEN 01:16:49 SEM LA CHALOUP M 33 SEM 390
73 CHAPITAUX SEBASTIEN 01:16:53 V1M RAIDERS M 28 V1M 370
74 BARRET RENE BERNARD 01:16:59 V1M - M 29 V1M 158
75 AUDER FRANCK 01:17:03 V1M DENIV M 30 V1M 37
76 THOMAS GERARD 01:17:11 SEM - M 34 SEM 437
77 LE GUERN HERVE 01:17:18 V1M CA DE LA P M 31 V1M 43
78 BAIGUE CHRISTIAN 01:17:23 V3M - M 1 V3M 59
79 DELAUNAY DIDIER 01:17:33 SEM CA DE LA P M 35 SEM 3
80 COSTECALDE SEBASTIEN 01:17:33 SEM - M 36 SEM 191
81 BEAULIEU JEANNICK 01:17:54 V1M CA DE LA P M 32 V1M 111
82 CLAUDIN MICHAEL 01:18:09 SEM - M 37 SEM 185
83 BELLEAU STEPHANE 01:18:11 SEM DENIV M 38 SEM 508
84 BOURGEOIS Marie Noelle 01:18:19 V1F CAPOSS F 1ere F 12
85 PIOT JEAN LOUIS 01:18:20 V1M - M 33 V1M 395
86 GRONDIN GEORGIO 01:18:23 SEM - M 39 SEM 266
87 TURPIN XAVIER 01:18:24 SEM DSA M 40 SEM 448
88 HOARAU PASCAL 01:18:43 V1M - M 34 V1M 280
89 ESPERANCE FABRICE 01:18:49 V1M - M 35 V1M 234
90 LOUIS NICOLAS 01:19:01 SEM - M 41 SEM 354
91 GRONDIN JOHNY FRED 01:19:04 SEM - M 42 SEM 269
92 AUBRAS JEAN DIDIER 01:19:05 SEM CA DE LA P M 43 SEM 51
93 FANGUIMACHE jean Luc 01:19:13 V1M - M 36 V1M 67
94 LATCHIMY LATCHOUMANI JOSEPH HARRY 01:19:34 V2M DENIV M 8 V2M 52
95 MAREUX MAX 01:20:10 V3M CA DE LA P M 2 V3M 362
96 AURE YVON 01:20:19 V2M ACSP M 9 V2M 153
97 PAYET Laurent 01:20:32 SEM - M 44 SEM 106
98 CHEVRET JEROME 01:20:35 SEM - M 45 SEM 184
99 BENARD CHRISTINE 01:20:36 V1F - F 2eme F 2 V1F 160
100 GUYOT Daniel 01:20:39 V2M - M 10 V2M 14
101 LAW YAM MICHEL 01:20:48 V3M - M 3 V3M 323
102 CERVEAUX Renaud 01:20:55 V2M - M 11 V2M 523
103 TIMON WILSON 01:20:59 SEM - M 46 SEM 442
104 DARY JEAN NOEL 01:21:02 V1M - M 37 V1M 200
105 SABATIER JEROME 01:21:02 SEM - M 47 SEM 503
106 EMMA Corinne 01:21:08 SEF CAPOSS F 3eme F 1 SEF 232
107 ROBERT JUDE 01:21:14 V2M CA DE LA P M 12 V2M 126
108 GONTHIER JEAN ERIC 01:21:22 V1M AVALASSE M 38 V1M 263
109 LHERMITTE ROBIN 01:21:23 SEM RUN'A M 48 SEM 100
110 GALAIS yannick 01:21:48 SEM - M 49 SEM 15
111 FERRERE BERNARD 01:21:51 V2M ACL M 13 V2M 241
112 BOITHIAS AMYAS 01:21:54 SEM - M 50 SEM 166
113 GRONDIN MICKAEL 01:22:20 V1M - M 39 V1M 129
114 VITRY JEAN HUGUES 01:22:20 V2M CCF RIV M 14 V2M 458
115 GRONDIN PASCAL 01:22:31 V2M - M 15 V2M 272
116 DACE FABRICE 01:23:17 V1M - M 40 V1M 198
117 PRUGNIERES ERIC 01:23:20 V1M - M 41 V1M 134
118 DORLA ALIX 01:24:28 V1M - M 42 V1M 216
119 SMITH REGIS 01:24:32 V3M - M 4 V3M 427
120 LON MON POY ERIC 01:24:34 V1M ACSP M 43 V1M 353
121 PERROUAULT HUGUETTE 01:24:45 V1F - F 3 V1F 389
122 HUET JAMAS 01:24:53 V1M DENIV M 44 V1M 97
123 SALAH ESTELLIO 01:24:59 V1M - M 45 V1M 417
124 LEFEVRE AXEL 01:25:11 V1M - M 46 V1M 342
125 KERMOUNE FREDERIC 01:25:14 V1M - M 47 V1M 66
126 GRONDIN JACQUES 01:25:43 V1M ACSTB M 48 V1M 267
127 SOLON JOHANN 01:25:44 SEM ACSTB M 51 SEM 428
128 MAILLOT ALDO MAURICE 01:25:53 V1M - M 49 V1M 358
129 ARNAUD LANCELLE DOMINIQUE 01:25:55 V2F ORT F 1 V2F 114
130 BERTHELOT CLEMENT 01:25:59 SEM - M 52 SEM 163
131 DUBARD ALFRED 01:26:00 V2M DENIV M 16 V2M 218
132 SOMNICA JEAN ALAIN 01:26:06 V1M - M 50 V1M 429
133 LAQUIA HENRI 01:26:15 V2M RDB M 17 V2M 317
134 DUPUIS CHARLOTTE 01:26:15 SEF DENIV F 2 SEF 225
135 NIEL CHANTAL 01:26:25 V1F BNA F 4 V1F 378
136 ARGAN DANIEL 01:26:37 SEM - M 53 SEM 149
137 VALY Erwan 01:26:40 V1M - M 51 V1M 86
138 ABADO olivier 01:26:50 V1M - M 52 V1M 94
139 THERMEA WILLIAM 01:26:51 SEM - M 54 SEM 120
140 MILLOT CEDRIC 01:27:00 SEM ACSP M 55 SEM 521
141 DEMOUSTIER JEAN FRANCOIS 01:27:00 V1M CSSDA M 53 V1M 516
142 SINOPE JEAN RENE 01:27:06 V2M CA DE LA P M 18 V2M 423
143 PIERES MICKAEL 01:27:09 SEM - M 56 SEM 2
144 RICHARDOT marion 01:27:11 SEF - F 3 SEF 88
145 PAULIN STEVEN 01:27:13 CAM CASM M 2 CAM 46
146 TALERIEN NADINE 01:27:17 SEF DA F 4 SEF 430
147 BONMALAIS Eric 01:27:18 ESM - M 4 ESM 39
148 DORILAS EMMANUELLE 01:27:24 SEF - F 5 SEF 213
149 FONTAINE YVES 01:27:28 V3M DSA M 5 V3M 251
150 POTHIN RICHARD 01:27:29 V3M CA DE LA P M 6 V3M 83
151 VALLEE LAURENT 01:27:47 V1M DENIV M 54 V1M 79
152 SADEYEN BRUNO 01:27:58 V1M - M 55 V1M 416
153 CADET ERIC EDDY 01:27:58 SEM - M 57 SEM 173
154 DOERLER philippe 01:28:01 V2M - M 19 V2M 95
155 REYNAUD david 01:28:15 SEM - M 58 SEM 87
156 DA CUNHA BORLIDO NATHALIE 01:28:15 SEF - F 6 SEF 197
157 REGNIER FRANCOIS 01:28:16 V2M - M 20 V2M 400
158 FAUQUETTE BERTRAND 01:28:16 SEM - M 59 SEM 236
159 NATIVEL NOELE 01:28:18 V2F CAPOSS F 2 V2F 376
160 ACAR Serge 01:28:24 SEM - M 60 SEM 23
161 LEBON YANNICK 01:28:27 M - M 2 M 334
162 GRONDIN LAURENT 01:28:43 SEM - M 61 SEM 271
163 RACINNE JEROME 01:28:45 SEM - M 62 SEM 397
164 BELZACKI Raphael 01:28:51 SEM - M 63 SEM 36
165 GANOVA Alexandre 01:29:19 ESM - M 5 ESM 38
166 CAROUPANIN DANY 01:29:52 V1M - M 56 V1M 177
167 NOEL JEAN LOUP 01:29:57 V2M - M 21 V2M 380
168 THEUREAU FLORIAN 01:29:58 SEM - M 64 SEM 107
169 TURPIN ALEX 01:30:04 CAM - M 3 CAM 445
170 GILBOIRE OLIVIER 01:30:06 SEM CA DE LA P M 65 SEM 125
171 LEPERLIER AGNIEL 01:30:15 V2M - M 22 V2M 351
172 SALAH JEAN ERIC 01:30:20 V2M - M 23 V2M 418
173 FONTAINE SANDRINE 01:30:25 SEF - F 7 SEF 250
174 GRONDIN JOSELITO 01:30:42 V1M DSA M 57 V1M 270
175 VAITY VANESSA 01:30:42 SEF - F 8 SEF 449
176 CROZET PHILIPPE 01:30:44 SEM DENIV M 66 SEM 99
177 PICARD Antoine 01:30:56 SEM - M 67 SEM 113
178 CARO Gilbert 01:30:57 V2M - M 24 V2M 17
179 ALAISE OLIVIER 01:31:00 V1M - M 58 V1M 144
180 ELBAZIS FRANCIS 01:31:01 V1M ACSP M 59 V1M 54
181 MAILLOT LAURENT 01:31:03 SEM DSA M 68 SEM 110
182 ROBERT ERIC 01:31:04 V2M CAPP M 25 V2M 101
183 EDMOND JOSE 01:31:05 V2M - M 26 V2M 229
184 FOUQUET CLAIN ANNIE 01:31:06 V2F DSA F 3 V2F 252
185 KLEIN JOSETTE 01:31:10 V2F ACSTB F 4 V2F 298
186 ENGUEHARD MICHEL 01:31:13 V1M CA DE LA P M 60 V1M 41
187 LE BIANIC nicolas 01:31:18 V1M - M 61 V1M 80
188 TECHER JULIEN 01:31:19 SEM - M 69 SEM 432
189 THOMAS MICHEL 01:31:19 V1M - M 62 V1M 438
190 TOURVILLE ALIETTE MARIE 01:31:22 V2F AAJM F 5 V2F 20
191 TOURVILLE CHRISTIAN 01:31:23 V2M AAJM M 27 V2M 21
192 HAUTEFORT PHILIPPE 01:31:24 V1M DENIV M 63 V1M 122
193 LE TENNIER SYLVIE 01:31:31 V2F CAPOSS F 6 V2F 333
194 BERTHELOT franck 01:31:38 V1M - M 64 V1M 84
195 RIVIERE JEAN FRANCOIS 01:31:58 V2M - M 28 V2M 406
196 REVEL OLIVIER 01:32:01 SEM - M 70 SEM 403
197 DUYRAVEAU JULIEN 01:32:03 SEM - M 71 SEM 517
198 VERBARD CHRISTELLE 01:32:11 SEF A.C.B F 9 SEF 453
199 CORSET GIODANY 01:32:12 SEM - M 72 SEM 188
200 FANGUIMACHE j FRANCOIS 01:32:13 V1M - M 65 V1M 68
201 PAPATY CEDRIC 01:32:16 SEM - M 73 SEM 123
202 DE CAMPOS GERIA PALMIRA 01:32:29 V1F RAIDERS F 5 V1F 301
203 TECHER HENRY JOE 01:32:30 V1M - M 66 V1M 431
204 SIDAT FLORENCE 01:32:38 SEF DENIV F 10 SEF 421
205 PROT MYRIAM 01:32:41 V1F DENIV F 6 V1F 96
206 LECLERE OLIVIER 01:32:42 SEM DENIV M 74 SEM 104
207 FONTAINE REGINE 01:32:47 V2F DSA F 7 V2F 248
208 MAUNIER BERNARD 01:32:51 V2M - M 29 V2M 366
209 LE NABAT Pascal 01:33:02 V2M - M 30 V2M 105
210 PAILLAT Jean 01:33:04 SEM - M 75 SEM 78
211 BERRIRI SONIA 01:33:15 V1F DENIV F 7 V1F 133
212 THIAW TOC JOHNY 01:33:16 V2M - M 31 V2M 436
213 ANANDANADARADJA RADJANE 01:33:27 V1M DENIV M 67 V1M 40
214 RAHIM KHAN Irshad 01:33:47 SEM - M 76 SEM 30
215 K/BIDI norbert 01:33:47 V1M - M 68 V1M 130
216 PIERRE AGNES 01:33:53 V1F ACSP F 8 V1F 392
217 CHAMBRIER DAVID 01:33:53 SEM - M 77 SEM 518
218 PINOT SORAYA 01:34:01 V1F - F 9 V1F 394
219 MOREAU DELPHINE 01:34:06 SEF - F 11 SEF 372
220 PUYLAURENT JEAN CHARLES 01:34:09 SEM - M 78 SEM 396
221 NICOLE Frederic 01:34:18 SEM - M 79 SEM 108
222 RIVIERE JEAN CEYLO 01:34:31 V2M - M 32 V2M 405
223 CAPARIN mimose 01:34:36 V2F - F 8 V2F 112
224 HOAREAU WILSON 01:34:39 SEM - M 80 SEM 285
225 DEVANE Georges 01:34:47 V1M - M 69 V1M 11
226 BOYER JEAN DENIS 01:34:56 SEM - M 81 SEM 169
227 ROBERT MAURICE JOSEPH 01:35:09 V3M A.C.B M 7 V3M 81
228 THOMAS SERGE 01:35:13 V3M - M 8 V3M 439
229 HOAREAU STEPHANE 01:35:22 SEM - M 82 SEM 509
230 AUBRAS JOSEPH 01:35:40 V2M - M 33 V2M 152
231 ARCHAMBAULT NADEGE 01:35:42 V1F - F 10 V1F 103
232 LANGENIER DIMITRI 01:36:04 SEM - M 83 SEM 313
233 SERY Sebastien 01:36:06 SEM - M 84 SEM 127
234 CALVO CHRISTINE 01:36:08 - F 176
235 AURE Patrick 01:36:08 V1M - M 70 V1M 24
236 BELLON MARIE ANGE 01:36:16 V3F ACSTB F 1 V3F 159
237 HOARAU ALAN 01:36:18 CAM - M 4 CAM 277
238 AUGIS LUDOVIC 01:36:19 SEM - M 85 SEM 502
239 ZETTOR FREDERIC 01:36:28 V1M - M 71 V1M 460
240 QUEFFELEC Mickala 01:36:28 SEF ST LOUIS F 12 SEF 124
241 LEOCADIE ELISABETH 01:36:33 V1F - F 11 V1F 348
242 GRAVELAT OLIVIER 01:36:43 V1M - M 72 V1M 265
243 CHESNOY PHILIPPE 01:36:46 V3M - M 9 V3M 183
244 DUPONT LUC 01:36:50 V1M - M 73 V1M 223
245 HULIN CHRSTOPHE 01:36:59 V1M DENIV M 74 V1M 287
246 BERGAMME jean philippe 01:37:24 SEM - M 86 SEM 74
247 VITRY FREDERIQUE 01:37:33 SEF CAPOSS F 13 SEF 457
248 RYFER SERGE 01:37:33 V2M - M 34 V2M 45
249 LE NABAT GERALDINE 01:37:49 JUF - F 1 JUF 329
250 LE GOUAREGUER CELINE 01:37:50 JUF - F 2 JUF 328
251 FONTAINE FREDERIC 01:37:52 SEM - M 87 SEM 247
252 CROZET MARIE THERESE 01:38:05 SEF DENIV F 14 SEF 196
253 BIJON JEAN YVES 01:38:46 V3M DENIV M 10 V3M 26
254 VIDOT ANNE 01:38:53 SEF BNA F 15 SEF 31
255 RUBEL PATRICK 01:39:09 V1M - M 75 V1M 414
256 BIT BEATRICE 01:39:09 V1F - F 12 V1F 164
257 PICARD LOUIS 01:39:21 SEM - M 88 SEM 391
258 HOLZAPFEL BRIGITTE 01:39:24 V2F CAPOSS F 9 V2F 91
259 AMRATE FOUAD 01:39:26 V1M - M 76 V1M 147
260 PAUSE MARIE ANISE 01:39:37 V1F CAPOSS F 13 V1F 385
261 FONTAINE CHRISTIANE 01:39:41 V1F BNA F 14 V1F 22
262 HERAULT Pascal 01:39:49 V2M - M 35 V2M 132
263 GANGLOFF THIERRY 01:40:01 V1M - M 77 V1M 257
264 DISCAZEAUX bertrand 01:40:11 V1M - M 78 V1M 76
265 DESSALES YANNICK 01:40:18 SEM - M 89 SEM 201
266 LAGOURDE PAUL DOMINIQUE 01:40:24 V2M - M 36 V2M 306
267 DURR THOMAS 01:40:31 SEM - M 90 SEM 226
268 HOARAU KARINE 01:40:33 V1F - F 15 V1F 279
269 PETIT CELINE 01:40:36 SEF ORT F 16 SEF 116
270 SMITH MATHIEU 01:40:40 SEM - M 91 SEM 426
271 SMITH IAN 01:40:40 SEM - M 92 SEM 425
272 FIGUIN ERIC 01:40:41 SEM - M 93 SEM 243
273 HOARAU JEAN MARIE 01:40:41 V2M - M 37 V2M 278
274 LECA ISABELLE 01:40:47 V1F DENIV F 16 V1F 19
275 BEAUXIS MURIELLE 01:41:02 SEF - F 17 SEF 128
276 CADET LAURENT 01:41:03 SEM - M 94 SEM 174
277 DEFAYSSE HUGUES 01:41:05 V2M - M 38 V2M 55
278 GABIOU JEAN DOMINIQUE 01:41:28 V2M CSSDA M 39 V2M 1
279 BOURDELAS JEROME 01:41:31 V1M CA DE LA P M 79 V1M 167
280 MOUROUVIN george Marie 01:41:33 SEM - M 95 SEM 69
281 BONNEAU FREDDY 01:41:42 SEM DSA M 96 SEM 109
282 CERVEAU SANDRA 01:41:45 SEF AC Salazie F 18 SEF 131
283 BONNEAU ADRIEN 01:41:46 SEM DSA M 97 SEM 89
284 PAUSE Daisy 01:41:59 SEF - F 19 SEF 64
285 PAUSE Pascal 01:41:59 V1M - M 80 V1M 65
286 ARNAUD Michel 01:42:01 V2M - M 40 V2M 115
287 TESSIER EMMANUELLE 01:42:24 SEF CAPOSS F 20 SEF 510
288 TORINIERE MARIE HELENE 01:42:24 V2F CAPOSS F 10 V2F 443
289 LEBOT MICHEL 01:42:38 V3M - M 11 V3M 339
290 CORNEC SOPHIE 01:42:48 SEF CAPOSS F 21 SEF 187
291 CERNOT JHONNY 01:43:01 V1M - M 81 V1M 180
292 DUMONT BERNADETTE 01:43:02 V1F - F 17 V1F 222
293 PIERRE FFRANCOIS 01:43:06 V1M - M 82 V1M 393
294 GALAOR PIERRE YVRIN 01:43:11 V1M - M 83 V1M 253
295 DELIRON WILLY 01:43:22 SEM - M 98 SEM 119
296 BRABANT VI TONG Francoise 01:43:35 V2F - F 11 V2F 7
297 LIEDLAVE MICKAEL 01:43:36 SEM - M 99 SEM 34
298 GHAZOUANI JAMAL 01:44:07 V2M - M 41 V2M 260
299 BARDIN DAVID 01:44:12 SEM - M 100 SEM 118
300 GALAIS VIDOT KARINE 01:44:18 SEF BNA F 22 SEF 29
301 ROBERT DANIELLE 01:44:20 V2F - F 12 V2F 410
302 JULLIEN SANDRINE 01:44:39 V1F - F 18 V1F 293
303 GARRIGOU GRANDCHAMPS PHILIPPE 01:44:42 V1M - M 84 V1M 258
304 RIVIERE JEANINE 01:45:02 V1F - F 19 V1F 407
305 SIHOU RICHELIN 01:45:12 V3M CSSDA M 12 V3M 422
306 CONSTANTE MARIE SYLVIE 01:45:14 SEF - F 23 SEF 186
307 ROCHECOUSTE CATHERINE 01:45:37 SEF - F 24 SEF 412
308 PAYET ANNE SOPHIE 01:45:43 SEF DSA F 25 SEF 62
309 PORTIER ANAIS 01:45:53 SEF ACSP F 26 SEF 137
310 MONTET OCEANE 01:45:58 JUF DSA F 3 JUF 49
311 RIVIERE EMILIE MARIE LA 01:46:00 SEF CAPOSS F 27 SEF 63
312 ALIZE MARIE BRIGITTE 01:46:41 V2F - F 13 V2F 145
313 GALMAR DOMINIQUE 01:46:52 V1M - M 85 V1M 254
314 LEE SONG YIN Sonia 01:46:57 SEF AC Salazie F 28 SEF 75
315 GRONDIN JEAN FRANCOIS 01:47:10 V2M - M 42 V2M 268
316 TESSIER PIERRE YVES 01:47:16 V2M - M 43 V2M 434
317 ACHERITEGUY Marion 01:47:23 V1F - F 20 V1F 58
318 GABIOU MARIE JACQUELIN 01:47:30 V2F CSSDA F 14 V2F 42
319 LEBOT DENISE 01:47:48 V3F - F 2 V3F 338
320 ADELER LAURA 01:47:59 V1F A.C.B F 21 V1F 142
321 JEAN BATISTE SOPHIE 01:49:01 SEF CAPOSS F 29 SEF 291
322 BOINON SANDRA 01:49:34 V1F DENIV F 22 V1F 165
323 THEVENIN Freddy 01:49:34 SEM - M 101 SEM 435
324 ADOLPHE Simon 01:49:47 V3M - M 13 V3M 524
325 FONTAINE CORINNE 01:49:50 V1F - F 23 V1F 245
326 SALAM MELANIE 01:50:05 SEF CAPOSS F 30 SEF 419
327 MEDARD SERGE 01:50:05 V3M CA DE LA P M 14 V3M 367
328 LECLERC FREDDY 01:50:17 SEM - M 102 SEM 340
329 TERASSON FRANCIS 01:50:30 V2M - M 44 V2M 433
330 ARNE SOPHIE 01:51:07 V1F - F 24 V1F 150
331 RAMIN COUPIN NATHALIE 01:51:24 V1F - F 25 V1F 398
332 LE GUERN GUYLAINE 01:51:30 V2F CAPOSS F 15 V2F 73
333 VIRASSAMY CATHERINE 01:51:35 SEF ACSTB F 31 SEF 514
334 LOUISE SONIA 01:51:39 SEF - F 32 SEF 356
335 SADEYEN ANTOINE 01:51:53 V2M - M 45 V2M 415
336 EYRAUD MICHAEL 01:52:01 SEM - M 103 SEM 235
337 SOUPAMA FREDERIC 01:52:16 SEM - M 104 SEM 121
338 HAPOLD NELLY 01:52:37 V1F CAPOSS F 26 V1F 138
339 REVEL LEO 01:52:59 V2M - M 46 V2M 402
340 HAUTEFORT VALERIE 01:53:48 V1F DENIV F 27 V1F 85
341 ANDRIOT GILBERT 01:54:13 V3M - M 15 V3M 148
342 LAIBE IVANE 01:54:50 V2M - M 47 V2M 310
343 FLOC'H CLAIRE 01:55:04 SEF - F 33 SEF 244
344 ROGER THOMAS 01:55:05 SEM RUN'A M 105 SEM 413
345 LE NABAT MARJORIE 01:56:01 V1F - F 28 V1F 330
346 LUCQUIAUD BRUNO 01:56:30 V2M CA DE LA P M 48 V2M 522
347 JUVENAL VIVETTE 01:56:38 V2F - F 16 V2F 296
348 BOMINTHE Jean Raymond 01:56:45 V1M - M 86 V1M 526
349 VILLE SONIA 01:56:47 SEF CAPOSS F 34 SEF 5
350 COUTAYE MARIE ANNE 01:56:47 V1F - F 29 V1F 194
351 GOURVILLE DANIELE 01:57:36 V2F - F 17 V2F 264
352 OULEDI BENEDICTE 01:57:47 V1F CAPOSS F 30 V1F 93
353 LEA PIERRE 01:58:03 V3M DENIV M 16 V3M 27
354 MICHAUD NATACHA 01:58:27 SEF CAPOSS F 35 SEF 368
355 NICOL SOLENE 01:58:33 SEF - F 36 SEF 377
356 GAMIN JOANY 01:59:19 ESM - M 6 ESM 256
357 ALCINOUS KEVIN 01:59:54 SEM - M 106 SEM 139
358 GROSSET THIERRY 01:59:56 SEM - M 107 SEM 273
359 VIRASSAMY JORENE 02:01:09 V1F - F 31 V1F 456
360 FELD ROMAIN 02:01:10 JUM - M 1 JUM 238
361 BALMANN SANDRA 02:01:42 V1F - F 32 V1F 155
362 BALMANN KARL 02:01:44 V2M - M 49 V2M 154
363 THIBURCE MARIE SYLVIE 02:02:16 V1F CAPOSS F 33 V1F 441
364 RIPOULET FRANSC 02:02:57 V2M - M 50 V2M 506
365 LECLAIRE SYLVIE 02:03:30 V1F DENIV F 34 V1F 25
366 HENRI JUSTINE 02:04:10 SEF - F 37 SEF 275
367 HUJEUX MARION 02:04:11 SEF - F 38 SEF 286
368 BOUKIR AICHA 02:04:43 V1F - F 35 V1F 117
369 GASP MOSQUERA DOMINIQUE 02:05:26 V3F - F 3 V3F 259
370 ABOUBACAR SAID 02:11:17 SEM - M 108 SEM 136
371 TILET JISMY 02:11:19 V1M - M 87 V1M 504
372 TURPIN ISABELLE 02:11:24 V1F - F 36 V1F 446
373 LOUISE ISABELLE 02:12:02 SEF - F 39 SEF 355
374 PICOT regis 02:12:10 V4M - M 1 V4M 60
375 DAREL MIMOSE 02:12:20 V2F - F 18 V2F 507
376 ADELER JEAN 02:15:24 V1M A.C.B M 88 V1M 141
377 KISSEL MYRIAM 02:16:37 V2F - F 19 V2F 297
378 RAVENNES RUTH 02:17:37 V1F - F 37 V1F 399
379 CORSET JEAN CLAUDIO 02:21:02 SEM - M 109 SEM 190
380 BOYER LOIC 02:25:16 SEM ESCDLM M 110 SEM 172
381 FELD JUDITH 02:29:01 V1F - F 38 V1F 237
382 PAYET MARIE CLAUDINE 02:30:17 V1F - F 39 V1F 387
383 CORSET HORTENSIA 02:31:11 SEM - M 111 SEM 189
384 HARMS Jan Dirk 02:33:47 V3M - M 17 V3M 8


ReferencementCe site est listé dans la catégorie Sport : Sports extrêmes Dictionnaire
| Accueil | La Réunion  Vue du ciel | Météo | Cyclones | Volcan | Cirques de Mafate , Cilaos , Salazie | Photos Randonnées | Randonnées Réunion: Randos Espiègle , Courses montagne | Diagonale des Fous |  Marathon des Sables | Voyages Les stats du site | Fonds écran | Plan du site | Blog de runraid | Galerie photos Sport Réunion |